INFORMAÇÕES DO AERODROMO
Icao Aerodromo ROYN Nome do Aerodromo Yonaguni Airport Cidade Yonaguni Jima
Código GPS ROYN Elevação Média 70 ft Tipo de Aerodromo Aeroporto Médio Porte

INFORMAÇÃO DE PISTA
Pista 08 Comprimento da Pista 4920 ft Largura da Pista 150 ft
Elevação da Pista 71 ft Distância de Area de Escape da Pista 0 ft Orientação da Pista 75
Pista 26 Comprimento da Pista 4920 ft Largura da Pista 150 ft
Elevação da Pista 48 ft Distância de Area de Escape da Pista 0 ft Orientação da Pista 255

FREQUÊNCIAS DO AERODROMO
Tipo A/G Nome REMOTE Frequência 118.5 MHZ

INFORMAÇÕES DE NAVEGAÇÃO PRÓXIMO AO AERODROMO
Tipo VOR-DME Nome Yonaguni Frequência 115050 KHZ

Informações de Meteorologia(METAR atual)
METAR DE ROYN
ADDS - METARS form results

(0053 UTC 21 April 2019)
Data provider http://aviationweather.gov/metar/data/
 
METAR text: ROYN 210000Z AUTO 01004KT 9999 -RA FEW009 SCT037 BKN047 25/24 Q1009
Conditions at: ROYN (YONAGUNI AIRPORT, JP) observed 0000 UTC 21 April 2019
Temperature: 25.0°C (77°F)
Dewpoint: 24.0°C (75°F) [RH = 94%]
Pressure (altimeter): 29.79 inches Hg (1009.0 mb)
Winds: from the N (10 degrees) at 5 MPH (4 knots; 2.1 m/s)
Visibility: 6 or more miles (10+ km)
Ceiling: 4700 feet AGL
Clouds: few clouds at 900 feet AGL
scattered clouds at 3700 feet AGL
broken clouds at 4700 feet AGL
Weather: -RA  (light rain)

MAPA DO AERODROMO


Desenvolvido por Virtual Airlines Manager




Modificado por Servidor Brasil Amigos